Time;durP1;ratioP1;P1;durP2;ratioP2;P2;SDS_P1;SDS_P2;PMS_P1;PMS_P2;Temp;Humidity;BMP_temperature;BMP_pressure;BME280_temperature;BME280_humidity;BME280_pressure;Samples;Min_cycle;Max_cycle;Signal;HPM_P1;HPM_P2
2021/03/29 00:03:16;;;;;;;4.30;0.80;;;9.20;80.80;;;;;;10375121;28;20049;-62
2021/03/29 00:08:24;;;;;;;4.25;0.82;;;9.10;81.50;;;;;;10374744;28;20045;-62
2021/03/29 00:13:29;;;;;;;7.22;1.20;;;9.00;81.60;;;;;;10372806;28;20072;-62
2021/03/29 00:18:30;;;;;;;7.72;1.00;;;8.90;81.80;;;;;;10376315;28;20114;-62
2021/03/29 00:23:32;;;;;;;4.00;0.88;;;8.80;82.50;;;;;;10355756;28;20100;-62
2021/03/29 00:28:35;;;;;;;8.27;0.93;;;8.90;83.10;;;;;;10377737;28;20893;-62
2021/03/29 00:33:38;;;;;;;5.75;1.08;;;8.90;83.00;;;;;;10376247;28;20046;-61
2021/03/29 00:38:41;;;;;;;4.93;1.63;;;8.90;82.70;;;;;;10343154;28;20594;-61
2021/03/29 00:43:44;;;;;;;7.97;1.35;;;8.70;83.50;;;;;;10373869;28;20053;-61
2021/03/29 00:48:49;;;;;;;5.65;0.70;;;8.60;84.20;;;;;;10377376;28;20053;-62
2021/03/29 00:53:53;;;;;;;9.90;1.52;;;8.50;85.30;;;;;;10368334;28;20787;-63
2021/03/29 00:58:56;;;;;;;3.53;0.70;;;8.40;86.40;;;;;;10377893;28;20045;-62
2021/03/29 01:03:59;;;;;;;3.58;1.30;;;8.20;86.80;;;;;;10373660;28;20107;-62
2021/03/29 01:09:08;;;;;;;6.68;1.17;;;8.30;86.80;;;;;;10371160;28;20072;-62
2021/03/29 01:14:14;;;;;;;4.85;1.15;;;8.20;87.80;;;;;;10351068;28;20123;-62
2021/03/29 01:19:54;;;;;;;4.80;1.17;;;8.10;87.70;;;;;;10367921;28;20132;-62
2021/03/29 01:25:06;;;;;;;11.85;1.75;;;8.00;88.30;;;;;;10245634;28;20049;-62
2021/03/29 01:30:09;;;;;;;9.05;1.60;;;7.90;88.80;;;;;;10378907;28;20200;-62
2021/03/29 01:35:20;;;;;;;9.55;1.50;;;7.80;89.70;;;;;;10380523;28;20049;-62
2021/03/29 01:40:22;;;;;;;4.65;1.40;;;7.70;90.60;;;;;;10362582;28;20080;-63
2021/03/29 01:45:24;;;;;;;9.90;1.70;;;7.60;91.20;;;;;;10378776;28;20103;-61
2021/03/29 01:50:28;;;;;;;9.60;2.17;;;7.50;91.60;;;;;;10379618;28;20545;-60
2021/03/29 01:55:31;;;;;;;3.92;1.40;;;7.40;92.30;;;;;;10382388;28;20637;-62
2021/03/29 02:00:48;;;;;;;6.82;1.88;;;7.30;92.60;;;;;;10367474;28;20115;-61
2021/03/29 02:05:51;;;;;;;5.43;1.85;;;7.20;92.80;;;;;;10109684;28;20683;-62
2021/03/29 02:10:53;;;;;;;6.20;1.20;;;7.20;93.40;;;;;;10381732;28;20064;-62
2021/03/29 02:15:57;;;;;;;6.85;1.15;;;7.10;94.40;;;;;;10378906;28;20069;-62
2021/03/29 02:21:07;;;;;;;30.65;15.50;;;7.00;95.10;;;;;;10374392;28;20038;-63
2021/03/29 02:26:08;;;;;;;31.40;13.50;;;6.90;96.20;;;;;;10377987;28;20076;-62
2021/03/29 02:31:10;;;;;;;10.57;6.55;;;6.80;97.20;;;;;;10361208;28;20053;-62
2021/03/29 02:36:12;;;;;;;10.55;3.83;;;6.70;98.10;;;;;;10381826;28;20057;-62
2021/03/29 02:41:13;;;;;;;9.40;3.08;;;6.70;98.90;;;;;;10379410;28;20045;-62
2021/03/29 02:46:15;;;;;;;4.00;1.42;;;6.60;99.20;;;;;;10380646;28;20038;-62
2021/03/29 02:51:17;;;;;;;10.60;2.78;;;6.70;99.00;;;;;;10373880;28;20053;-62
2021/03/29 02:56:28;;;;;;;11.32;2.55;;;6.80;99.40;;;;;;10380581;28;20083;-62
2021/03/29 03:01:34;;;;;;;6.35;0.88;;;7.10;97.00;;;;;;10373480;28;20119;-62
2021/03/29 03:06:36;;;;;;;10.02;2.33;;;7.50;95.00;;;;;;10377327;28;20480;-62
2021/03/29 03:11:37;;;;;;;5.47;1.08;;;7.90;92.70;;;;;;10376175;28;20512;-62
2021/03/29 03:16:39;;;;;;;4.15;0.90;;;8.10;91.70;;;;;;10376514;28;20365;-62
2021/03/29 03:21:41;;;;;;;5.13;1.00;;;8.20;90.50;;;;;;10377968;28;20145;-62
2021/03/29 03:26:42;;;;;;;4.70;0.70;;;8.40;90.00;;;;;;10377897;28;20104;-62
2021/03/29 03:31:43;;;;;;;5.53;0.95;;;8.40;90.00;;;;;;10376453;28;20045;-62
2021/03/29 03:36:44;;;;;;;6.90;1.13;;;8.40;90.20;;;;;;10376206;28;20450;-62
2021/03/29 03:41:46;;;;;;;13.15;1.27;;;8.30;89.40;;;;;;10376049;28;20053;-62
2021/03/29 03:46:48;;;;;;;7.18;1.65;;;8.30;89.60;;;;;;10375859;28;20128;-62
2021/03/29 03:51:51;;;;;;;4.72;0.90;;;8.30;89.70;;;;;;10377504;28;20049;-62
2021/03/29 03:56:53;;;;;;;6.85;1.35;;;8.20;90.10;;;;;;10371781;28;20060;-62
2021/03/29 04:02:07;;;;;;;10.52;3.45;;;8.20;90.20;;;;;;10381399;28;20053;-62
2021/03/29 04:07:09;;;;;;;3.10;0.90;;;8.20;90.60;;;;;;10328473;28;20041;-62
2021/03/29 04:12:11;;;;;;;5.85;1.17;;;8.10;90.70;;;;;;10379606;28;20073;-62
2021/03/29 04:17:12;;;;;;;10.45;1.83;;;8.10;90.70;;;;;;10374268;28;20488;-62
2021/03/29 04:22:13;;;;;;;7.07;1.58;;;8.00;91.10;;;;;;10373452;28;20041;-62
2021/03/29 04:27:14;;;;;;;8.27;2.20;;;7.90;91.40;;;;;;10372276;28;20042;-62
2021/03/29 04:32:15;;;;;;;5.60;1.88;;;7.80;92.00;;;;;;10375782;28;20191;-62
2021/03/29 04:37:17;;;;;;;8.98;1.63;;;7.70;92.20;;;;;;10374057;28;20046;-62
2021/03/29 04:42:18;;;;;;;12.68;1.75;;;7.60;93.10;;;;;;10374724;28;20057;-62
2021/03/29 04:47:20;;;;;;;6.45;1.35;;;7.50;93.60;;;;;;10374980;28;20572;-62
2021/03/29 04:52:21;;;;;;;7.90;1.63;;;7.40;93.50;;;;;;10352824;28;20065;-62
2021/03/29 04:57:23;;;;;;;10.40;1.33;;;7.40;93.80;;;;;;10375184;28;20063;-62
2021/03/29 05:02:24;;;;;;;11.13;2.72;;;7.40;94.10;;;;;;10371583;28;20578;-62
2021/03/29 05:07:25;;;;;;;6.75;2.38;;;7.30;94.40;;;;;;10380431;28;20107;-63
2021/03/29 05:12:26;;;;;;;7.95;1.40;;;7.30;95.00;;;;;;10384752;28;20111;-62
2021/03/29 05:17:27;;;;;;;6.78;1.73;;;7.30;95.20;;;;;;10379730;28;20694;-62
2021/03/29 05:22:29;;;;;;;7.00;1.70;;;7.40;95.40;;;;;;10370643;28;20136;-62
2021/03/29 05:27:30;;;;;;;8.85;1.95;;;7.40;95.30;;;;;;10378794;28;20139;-63
2021/03/29 05:32:31;;;;;;;8.60;1.40;;;7.50;94.90;;;;;;10381459;28;20365;-62
2021/03/29 05:37:32;;;;;;;9.32;1.90;;;7.50;95.00;;;;;;10383883;28;20115;-63
2021/03/29 05:42:34;;;;;;;10.32;2.10;;;7.40;95.20;;;;;;10387649;28;20050;-63
2021/03/29 05:47:37;;;;;;;9.60;2.47;;;7.50;95.40;;;;;;10376849;28;20080;-63
2021/03/29 05:52:40;;;;;;;9.15;2.40;;;7.50;95.40;;;;;;10380884;28;20049;-63
2021/03/29 06:02:52;;;;;;;6.95;2.15;;;7.60;95.40;;;;;;10379670;28;20107;-62
2021/03/29 06:08:00;;;;;;;8.68;2.38;;;7.70;95.20;;;;;;10382894;28;20041;-61
2021/03/29 06:13:14;;;;;;;11.68;2.05;;;7.80;94.80;;;;;;10376440;28;20079;-62
2021/03/29 06:18:17;;;;;;;9.93;1.67;;;7.90;94.40;;;;;;10374477;28;20097;-62
2021/03/29 06:23:18;;;;;;;7.53;1.98;;;7.90;94.20;;;;;;10381985;28;20060;-62
2021/03/29 06:28:26;;;;;;;9.70;2.10;;;8.00;93.90;;;;;;10374447;28;20132;-61
2021/03/29 06:33:27;;;;;;;9.60;2.53;;;8.20;93.40;;;;;;10379269;28;20115;-60
2021/03/29 06:38:34;;;;;;;7.53;1.40;;;8.30;93.20;;;;;;10381909;28;20081;-60
2021/03/29 06:43:35;;;;;;;7.82;2.20;;;8.40;92.40;;;;;;10377124;28;20053;-60
2021/03/29 06:48:38;;;;;;;10.43;2.33;;;8.50;92.00;;;;;;10378772;28;20056;-60
2021/03/29 06:53:55;;;;;;;10.00;1.60;;;8.70;91.90;;;;;;10379609;28;20081;-61
2021/03/29 06:59:15;;;;;;;7.60;1.80;;;8.90;91.60;;;;;;10378746;28;20103;-60
2021/03/29 07:04:21;;;;;;;8.07;2.45;;;9.20;90.30;;;;;;10375639;28;20061;-60
2021/03/29 07:09:23;;;;;;;4.45;1.70;;;9.40;88.70;;;;;;10377922;28;20068;-60
2021/03/29 07:14:24;;;;;;;6.85;2.25;;;9.40;86.70;;;;;;10377595;28;20057;-61
2021/03/29 07:19:27;;;;;;;7.72;2.50;;;9.60;86.00;;;;;;10372063;28;20049;-61
2021/03/29 07:24:28;;;;;;;12.25;2.20;;;9.70;85.30;;;;;;10375053;28;20115;-61
2021/03/29 07:29:37;;;;;;;7.57;2.13;;;10.00;83.60;;;;;;10374010;28;20054;-59
2021/03/29 07:34:48;;;;;;;5.78;1.75;;;10.20;83.30;;;;;;10377835;28;20049;-62
2021/03/29 07:39:49;;;;;;;5.50;1.73;;;10.60;81.40;;;;;;10372192;28;20774;-61
2021/03/29 07:44:55;;;;;;;9.95;1.88;;;10.70;79.50;;;;;;10372593;28;20049;-61
2021/03/29 07:49:58;;;;;;;8.10;1.88;;;10.90;78.30;;;;;;10371526;28;20507;-60
2021/03/29 07:55:14;;;;;;;7.07;2.45;;;10.90;78.50;;;;;;10372287;28;20431;-60
2021/03/29 08:00:25;;;;;;;6.13;2.20;;;11.10;77.90;;;;;;10223950;28;20492;-60
2021/03/29 08:05:48;;;;;;;10.55;3.10;;;11.20;76.50;;;;;;10338549;28;20049;-60
2021/03/29 08:10:56;;;;;;;5.78;1.45;;;11.50;76.40;;;;;;10375422;28;20056;-60
2021/03/29 08:16:09;;;;;;;6.30;1.80;;;11.60;75.40;;;;;;10355196;28;20060;-61
2021/03/29 08:21:46;;;;;;;7.68;1.52;;;11.80;74.90;;;;;;10373165;28;20058;-61
2021/03/29 08:26:48;;;;;;;6.55;1.73;;;11.80;74.00;;;;;;10290424;28;20064;-61
2021/03/29 08:32:28;;;;;;;7.88;1.83;;;12.00;73.30;;;;;;10372062;28;20641;-61
2021/03/29 08:37:40;;;;;;;7.85;1.63;;;12.30;72.90;;;;;;10193096;28;20404;-61
2021/03/29 08:42:46;;;;;;;4.82;1.67;;;12.20;71.40;;;;;;10368685;28;20076;-60
2021/03/29 08:47:50;;;;;;;10.67;1.73;;;12.40;70.50;;;;;;10351212;28;20049;-61
2021/03/29 08:52:57;;;;;;;5.65;1.20;;;12.40;70.00;;;;;;10366412;28;20077;-61
2021/03/29 08:57:59;;;;;;;;;;;12.60;69.40;;;;;;10358914;28;20128;-62
2021/03/29 09:03:00;;;;;;;8.35;2.05;;;12.70;68.80;;;;;;10375453;28;19993;-61
2021/03/29 09:08:10;;;;;;;6.72;1.60;;;13.00;68.70;;;;;;10373522;28;20049;-61
2021/03/29 09:13:15;;;;;;;9.43;1.45;;;13.20;68.40;;;;;;10370751;28;20080;-60
2021/03/29 09:18:19;;;;;;;5.82;1.65;;;13.20;68.20;;;;;;10366877;28;20053;-61
2021/03/29 09:23:32;;;;;;;5.72;1.88;;;13.50;68.50;;;;;;10372360;28;20131;-61
2021/03/29 09:28:36;;;;;;;8.63;1.30;;;13.60;67.40;;;;;;10367311;28;20603;-61
2021/03/29 09:33:57;;;;;;;8.77;1.65;;;13.80;66.80;;;;;;10366301;28;20415;-61
2021/03/29 09:39:01;;;;;;;7.55;1.50;;;14.00;67.00;;;;;;10365962;28;20060;-61
2021/03/29 09:44:08;;;;;;;7.13;1.75;;;14.20;65.60;;;;;;10365811;28;20050;-62
2021/03/29 09:49:15;;;;;;;13.90;3.00;;;14.20;65.30;;;;;;10372957;28;20057;-61
2021/03/29 09:54:28;;;;;;;9.68;1.65;;;14.30;63.70;;;;;;10353637;28;20140;-61
2021/03/29 09:59:35;;;;;;;4.00;0.60;;;14.50;62.00;;;;;;10370690;28;20061;-61
2021/03/29 10:04:37;;;;;;;5.07;1.55;;;14.70;61.40;;;;;;10370802;28;20594;-61
2021/03/29 10:09:46;;;;;;;5.57;1.67;;;14.70;62.00;;;;;;10374466;28;20054;-62
2021/03/29 10:14:48;;;;;;;;;;;15.10;61.80;;;;;;10371758;28;20064;-61
2021/03/29 10:19:49;;;;;;;4.10;1.52;;;15.40;60.00;;;;;;10367402;28;20326;-60
2021/03/29 10:25:14;;;;;;;7.13;1.38;;;15.90;60.20;;;;;;10351508;28;20709;-61
2021/03/29 10:30:18;;;;;;;8.73;1.45;;;16.00;58.40;;;;;;10323821;28;20060;-61
2021/03/29 10:35:21;;;;;;;7.82;1.20;;;16.80;57.20;;;;;;10175971;28;20439;-61
2021/03/29 10:40:24;;;;;;;6.05;1.25;;;17.10;56.50;;;;;;10108635;28;20085;-62
2021/03/29 10:45:25;;;;;;;9.45;1.60;;;18.10;54.50;;;;;;10128101;28;20790;-60
2021/03/29 10:50:26;;;;;;;3.50;1.30;;;18.10;53.60;;;;;;10150384;28;20045;-61
2021/03/29 10:55:28;;;;;;;6.95;1.83;;;18.80;53.00;;;;;;10135620;28;20480;-61
2021/03/29 11:00:29;;;;;;;4.45;1.00;;;18.80;52.60;;;;;;10128367;28;20700;-60
2021/03/29 11:05:30;;;;;;;4.75;1.40;;;19.20;50.90;;;;;;10131198;28;20061;-61
2021/03/29 11:10:33;;;;;;;8.38;1.80;;;18.80;50.50;;;;;;10147087;28;20448;-61
2021/03/29 11:15:52;;;;;;;8.27;1.95;;;19.90;50.30;;;;;;10130291;28;20045;-61
2021/03/29 11:20:55;;;;;;;2.95;0.90;;;19.90;48.50;;;;;;10124035;28;20064;-62
2021/03/29 11:25:56;;;;;;;6.97;1.50;;;20.20;49.50;;;;;;10146028;28;20061;-61
2021/03/29 11:30:58;;;;;;;4.68;1.42;;;19.90;48.60;;;;;;10118202;28;20051;-61
2021/03/29 11:36:00;;;;;;;3.97;1.20;;;20.40;47.80;;;;;;10140129;28;20231;-61
2021/03/29 11:41:01;;;;;;;4.78;1.83;;;20.90;48.10;;;;;;10151800;28;20392;-61
2021/03/29 11:46:02;;;;;;;5.50;1.52;;;19.80;49.10;;;;;;10141538;28;20423;-61
2021/03/29 11:51:09;;;;;;;4.63;1.30;;;20.50;48.20;;;;;;10246698;28;20061;-61
2021/03/29 11:56:11;;;;;;;5.22;1.27;;;21.00;46.30;;;;;;10378024;28;20057;-60
2021/03/29 12:01:19;;;;;;;6.03;1.35;;;21.40;45.60;;;;;;10372605;28;20053;-61
2021/03/29 12:06:28;;;;;;;7.10;1.92;;;20.20;47.30;;;;;;10367873;28;20100;-61
2021/03/29 12:16:52;;;;;;;5.65;1.45;;;22.30;45.50;;;;;;10368534;28;20064;-62
2021/03/29 12:21:57;;;;;;;6.43;1.30;;;22.60;43.50;;;;;;10373355;28;20107;-61
2021/03/29 12:27:03;;;;;;;6.25;1.00;;;22.70;42.80;;;;;;10374718;28;20451;-62
2021/03/29 12:32:07;;;;;;;5.10;1.25;;;22.70;42.50;;;;;;10372244;28;20069;-62
2021/03/29 12:37:10;;;;;;;6.60;1.20;;;22.80;42.60;;;;;;10374887;28;20049;-63
2021/03/29 12:42:14;;;;;;;3.47;0.80;;;22.40;41.00;;;;;;10372500;28;20168;-65
2021/03/29 12:47:16;;;;;;;5.05;0.98;;;23.60;40.20;;;;;;10370523;28;20704;-62
2021/03/29 12:52:18;;;;;;;5.40;0.90;;;24.10;40.80;;;;;;10368410;28;20049;-61
2021/03/29 12:57:19;;;;;;;5.75;0.85;;;24.40;39.40;;;;;;10371485;28;20586;-61
2021/03/29 13:02:21;;;;;;;2.47;0.90;;;22.80;40.30;;;;;;10373631;28;20049;-62
2021/03/29 13:07:34;;;;;;;4.05;1.13;;;23.40;39.60;;;;;;10371253;28;20374;-63
2021/03/29 13:12:35;;;;;;;5.50;0.70;;;24.50;38.50;;;;;;10376183;28;20050;-62
2021/03/29 13:17:42;;;;;;;5.40;0.70;;;24.10;39.30;;;;;;10371489;28;20083;-62
2021/03/29 13:22:46;;;;;;;3.30;0.68;;;24.70;37.70;;;;;;10370850;28;20057;-62
2021/03/29 13:27:56;;;;;;;3.83;1.20;;;24.90;37.30;;;;;;10377410;28;20160;-62
2021/03/29 13:32:59;;;;;;;3.15;1.10;;;24.50;38.10;;;;;;10379303;28;20060;-62
2021/03/29 13:38:02;;;;;;;8.00;0.90;;;25.10;37.90;;;;;;10379806;28;20049;-61
2021/03/29 13:43:04;;;;;;;7.65;1.65;;;24.80;36.40;;;;;;10382059;28;20057;-62
2021/03/29 13:48:06;;;;;;;5.97;0.70;;;24.20;38.30;;;;;;10375793;28;20050;-63
2021/03/29 13:53:11;;;;;;;4.25;0.77;;;24.50;36.60;;;;;;10377932;28;20547;-62
2021/03/29 13:58:12;;;;;;;4.88;0.82;;;24.60;36.90;;;;;;10380478;28;20041;-63
2021/03/29 14:03:16;;;;;;;3.00;0.60;;;27.50;35.90;;;;;;10362640;28;20052;-62
2021/03/29 14:08:17;;;;;;;2.65;0.60;;;24.00;37.10;;;;;;10381463;28;20129;-62
2021/03/29 14:13:18;;;;;;;1.45;0.50;;;25.40;35.50;;;;;;10373991;28;20472;-63
2021/03/29 14:18:20;;;;;;;6.13;0.70;;;25.90;34.40;;;;;;10383212;28;20132;-62
2021/03/29 14:23:22;;;;;;;3.92;0.60;;;27.00;34.90;;;;;;10384540;28;20076;-62
2021/03/29 14:28:24;;;;;;;2.08;0.30;;;26.80;33.30;;;;;;10379970;28;20069;-62
2021/03/29 14:33:26;;;;;;;4.03;0.40;;;25.60;33.00;;;;;;10356071;28;20053;-63
2021/03/29 14:38:45;;;;;;;2.97;0.57;;;25.70;34.80;;;;;;10341558;28;20065;-61
2021/03/29 14:48:48;;;;;;;4.20;0.88;;;25.40;33.70;;;;;;10377438;28;20119;-62
2021/03/29 14:53:50;;;;;;;8.02;1.35;;;25.00;35.50;;;;;;10377988;28;20048;-62
2021/03/29 14:58:51;;;;;;;7.10;1.08;;;24.60;35.50;;;;;;10377323;28;20061;-61
2021/03/29 15:03:54;;;;;;;4.40;0.40;;;24.40;34.60;;;;;;10381516;28;20480;-61
2021/03/29 15:08:55;;;;;;;5.25;0.85;;;24.10;35.30;;;;;;10379094;28;20107;-61
2021/03/29 15:13:57;;;;;;;1.85;0.50;;;23.50;36.30;;;;;;10374680;28;20131;-61
2021/03/29 15:18:58;;;;;;;4.30;0.40;;;23.40;36.00;;;;;;10378426;28;20049;-61
2021/03/29 15:23:59;;;;;;;2.35;0.45;;;23.10;35.60;;;;;;10358721;28;20084;-61
2021/03/29 15:29:00;;;;;;;2.30;0.40;;;22.50;36.70;;;;;;10379506;28;20377;-61
2021/03/29 15:34:02;;;;;;;3.55;0.43;;;22.90;36.40;;;;;;10361907;28;20489;-61
2021/03/29 15:39:05;;;;;;;1.40;0.70;;;23.10;36.60;;;;;;10376221;28;20102;-61
2021/03/29 15:44:07;;;;;;;4.80;0.40;;;23.00;37.40;;;;;;10377534;28;20114;-61
2021/03/29 15:49:08;;;;;;;4.82;2.15;;;22.60;37.10;;;;;;10375362;28;20045;-62
2021/03/29 15:54:10;;;;;;;2.97;0.50;;;22.40;36.90;;;;;;10378357;28;20049;-60
2021/03/29 15:59:11;;;;;;;2.42;0.40;;;22.70;37.30;;;;;;10376823;28;20100;-60
2021/03/29 16:04:12;;;;;;;2.00;0.50;;;22.60;38.20;;;;;;10376200;28;20103;-60
2021/03/29 16:09:17;;;;;;;4.07;0.50;;;22.40;37.90;;;;;;10377101;28;20060;-61
2021/03/29 16:14:19;;;;;;;3.42;0.60;;;22.60;37.70;;;;;;10374745;28;20067;-61
2021/03/29 16:19:21;;;;;;;2.17;0.40;;;22.20;37.30;;;;;;10376421;28;21167;-60
2021/03/29 16:24:23;;;;;;;3.70;0.75;;;22.40;37.50;;;;;;10377791;28;20049;-61
2021/03/29 16:29:38;;;;;;;2.60;0.70;;;21.90;37.70;;;;;;10375738;28;20096;-61
2021/03/29 16:34:40;;;;;;;1.70;0.40;;;21.80;37.80;;;;;;10374681;28;20496;-61
2021/03/29 16:39:41;;;;;;;4.03;0.73;;;21.80;38.10;;;;;;10376689;28;20486;-62
2021/03/29 16:44:43;;;;;;;2.63;0.40;;;21.70;38.60;;;;;;10379728;28;20056;-60
2021/03/29 16:49:45;;;;;;;3.40;0.98;;;21.70;38.60;;;;;;10379421;28;20054;-61
2021/03/29 16:54:46;;;;;;;5.97;1.70;;;21.60;38.30;;;;;;10375610;28;20042;-61
2021/03/29 16:59:47;;;;;;;4.35;0.60;;;21.40;38.40;;;;;;10377592;28;20064;-61
2021/03/29 17:04:48;;;;;;;3.50;0.50;;;21.30;39.10;;;;;;10381679;28;20104;-61
2021/03/29 17:09:49;;;;;;;2.97;0.50;;;21.20;39.30;;;;;;10384201;28;20045;-61
2021/03/29 17:14:51;;;;;;;3.92;0.65;;;20.90;40.20;;;;;;10384714;28;20904;-61
2021/03/29 17:19:53;;;;;;;2.03;1.08;;;20.60;40.40;;;;;;10382123;28;20046;-61
2021/03/29 17:24:54;;;;;;;4.78;0.60;;;20.50;40.10;;;;;;10381815;28;20054;-61
2021/03/29 17:29:55;;;;;;;1.95;0.50;;;20.20;41.10;;;;;;10382164;28;20052;-60
2021/03/29 17:34:57;;;;;;;3.78;0.60;;;19.90;42.10;;;;;;10381451;28;20076;-62
2021/03/29 17:39:58;;;;;;;3.17;0.80;;;19.50;42.30;;;;;;10383706;28;20053;-61
2021/03/29 17:44:59;;;;;;;8.55;1.17;;;19.20;43.80;;;;;;10335397;28;20058;-62
2021/03/29 17:50:06;;;;;;;6.63;1.10;;;18.90;44.80;;;;;;10302356;28;20113;-62
2021/03/29 17:55:09;;;;;;;7.13;1.02;;;18.50;45.60;;;;;;10301515;28;20054;-61
2021/03/29 18:00:14;;;;;;;10.45;0.95;;;18.20;48.00;;;;;;10299944;28;20050;-62
2021/03/29 18:05:15;;;;;;;4.18;0.90;;;17.80;46.70;;;;;;10301371;28;20128;-61
2021/03/29 18:10:18;;;;;;;16.63;3.20;;;17.50;48.40;;;;;;10303047;28;20057;-62
2021/03/29 18:15:19;;;;;;;4.18;1.35;;;17.20;50.30;;;;;;10302722;28;20050;-63
2021/03/29 18:20:22;;;;;;;3.85;0.75;;;16.80;51.30;;;;;;10299921;28;20046;-62
2021/03/29 18:25:23;;;;;;;2.83;0.85;;;16.60;51.90;;;;;;10296773;28;20046;-61
2021/03/29 18:30:25;;;;;;;6.38;1.08;;;16.30;53.50;;;;;;10300816;28;20405;-61
2021/03/29 18:35:27;;;;;;;5.20;1.10;;;16.00;56.80;;;;;;10298057;28;20062;-60
2021/03/29 18:40:49;;;;;;;6.47;1.38;;;15.70;57.10;;;;;;10235123;28;20197;-60
2021/03/29 18:45:51;;;;;;;4.68;1.00;;;15.40;59.50;;;;;;10360658;28;20487;-60
2021/03/29 18:50:52;;;;;;;4.75;1.20;;;15.10;62.00;;;;;;10381318;28;20067;-61
2021/03/29 18:56:04;;;;;;;6.03;1.33;;;14.90;62.70;;;;;;10372667;28;20063;-59
2021/03/29 19:01:06;;;;;;;3.50;0.88;;;14.60;63.70;;;;;;10361200;28;20053;-60
2021/03/29 19:06:09;;;;;;;10.07;0.93;;;14.40;61.50;;;;;;10379016;28;20065;-60
2021/03/29 19:11:11;;;;;;;8.65;1.75;;;14.20;64.80;;;;;;10373709;28;20064;-61
2021/03/29 19:16:12;;;;;;;10.93;2.05;;;13.90;67.10;;;;;;10375222;28;20117;-61
2021/03/29 19:21:14;;;;;;;4.70;1.75;;;13.70;66.20;;;;;;10386852;28;20051;-62
2021/03/29 19:26:20;;;;;;;18.88;5.05;;;13.50;67.80;;;;;;10380973;28;20061;-61
2021/03/29 19:31:22;;;;;;;10.87;2.63;;;13.20;70.20;;;;;;10380208;28;20049;-61
2021/03/29 19:36:25;;;;;;;4.45;1.63;;;13.00;71.70;;;;;;10381312;28;20049;-63
2021/03/29 19:41:27;;;;;;;4.82;1.13;;;12.80;72.30;;;;;;10377990;28;20168;-61
2021/03/29 19:46:30;;;;;;;5.80;1.23;;;12.60;72.50;;;;;;10379517;28;20049;-62
2021/03/29 19:51:31;;;;;;;5.13;0.80;;;12.40;73.90;;;;;;10378587;28;20061;-62
2021/03/29 19:56:33;;;;;;;7.47;1.70;;;12.30;74.10;;;;;;10375606;28;20046;-62
2021/03/29 20:01:39;;;;;;;4.43;1.20;;;12.20;74.00;;;;;;10380426;28;20052;-63
2021/03/29 20:06:50;;;;;;;5.07;1.88;;;12.00;74.30;;;;;;10379554;28;20057;-62
2021/03/29 20:11:52;;;;;;;7.95;2.38;;;11.80;76.60;;;;;;10377309;28;20094;-61
2021/03/29 20:16:54;;;;;;;5.22;2.20;;;11.60;78.00;;;;;;10373444;28;20050;-62
2021/03/29 20:21:56;;;;;;;5.13;1.77;;;11.50;79.60;;;;;;10365880;28;20496;-62
2021/03/29 20:26:58;;;;;;;6.18;1.88;;;11.30;80.40;;;;;;10364962;28;20780;-62
2021/03/29 20:31:59;;;;;;;5.93;1.90;;;11.20;80.40;;;;;;10363877;28;20073;-62
2021/03/29 20:37:05;;;;;;;4.72;2.10;;;11.10;81.20;;;;;;10364742;28;20111;-62
2021/03/29 20:42:07;;;;;;;11.27;1.85;;;10.90;81.50;;;;;;10386853;28;20057;-61
2021/03/29 20:47:09;;;;;;;7.38;1.65;;;10.90;82.70;;;;;;10385135;28;20053;-62
2021/03/29 20:52:10;;;;;;;5.72;1.63;;;10.80;83.80;;;;;;10388086;28;20095;-60
2021/03/29 20:57:11;;;;;;;8.75;1.45;;;10.60;82.80;;;;;;10363833;28;20054;-60
2021/03/29 21:02:13;;;;;;;2.72;1.15;;;10.60;83.40;;;;;;10386511;28;20044;-61
2021/03/29 21:07:14;;;;;;;9.32;2.08;;;10.40;82.80;;;;;;10384485;28;20559;-62
2021/03/29 21:12:15;;;;;;;7.13;1.90;;;10.30;85.30;;;;;;10377015;28;20504;-62
2021/03/29 21:17:16;;;;;;;15.75;3.20;;;10.20;88.10;;;;;;10382908;28;20375;-62
2021/03/29 21:22:18;;;;;;;5.80;2.78;;;10.10;90.70;;;;;;10384041;28;20123;-61
2021/03/29 21:27:19;;;;;;;7.15;1.73;;;10.00;92.20;;;;;;10362859;28;20049;-61
2021/03/29 21:32:20;;;;;;;7.68;1.73;;;9.90;92.10;;;;;;10383471;28;20131;-61
2021/03/29 21:37:24;;;;;;;4.05;1.80;;;9.70;92.10;;;;;;10394943;28;20065;-61
2021/03/29 21:42:27;;;;;;;5.53;1.98;;;9.50;93.50;;;;;;10387786;28;20140;-62
2021/03/29 21:47:28;;;;;;;5.45;2.00;;;9.50;93.80;;;;;;10372691;28;20053;-61
2021/03/29 21:52:29;;;;;;;5.65;1.88;;;9.40;94.40;;;;;;10393265;28;20050;-61
2021/03/29 21:57:32;;;;;;;7.57;2.20;;;9.30;95.70;;;;;;10372734;28;20064;-61
2021/03/29 22:02:35;;;;;;;5.57;2.22;;;9.30;95.70;;;;;;10393020;28;20080;-61
2021/03/29 22:07:37;;;;;;;6.93;1.45;;;9.20;96.10;;;;;;10394921;28;20049;-62
2021/03/29 22:12:38;;;;;;;6.25;1.58;;;9.00;95.80;;;;;;10392280;28;20041;-61
2021/03/29 22:17:40;;;;;;;4.43;1.63;;;9.00;96.10;;;;;;10394112;28;20083;-61
2021/03/29 22:22:43;;;;;;;8.07;1.73;;;8.90;97.00;;;;;;10393661;28;20053;-61
2021/03/29 22:27:59;;;;;;;8.57;2.05;;;8.80;98.10;;;;;;10388139;28;20041;-61
2021/03/29 22:33:05;;;;;;;3.47;1.67;;;8.80;98.70;;;;;;10387927;28;20959;-61
2021/03/29 22:38:37;;;;;;;3.45;1.88;;;8.70;99.80;;;;;;10382401;28;20041;-62
2021/03/29 22:43:38;;;;;;;5.78;1.70;;;8.60;99.40;;;;;;10372223;28;20099;-62
2021/03/29 22:48:40;;;;;;;5.25;1.65;;;8.40;99.90;;;;;;10385116;28;20050;-62
2021/03/29 22:53:42;;;;;;;3.70;1.20;;;8.40;99.10;;;;;;10387716;28;20041;-62
2021/03/29 22:58:43;;;;;;;6.40;1.70;;;8.30;99.90;;;;;;10369997;28;20054;-62
2021/03/29 23:03:46;;;;;;;6.20;1.75;;;8.20;99.90;;;;;;10387821;28;20144;-61
2021/03/29 23:08:47;;;;;;;3.30;1.27;;;8.10;99.90;;;;;;10385296;28;20149;-63
2021/03/29 23:13:48;;;;;;;6.75;2.15;;;8.00;99.90;;;;;;10386913;28;20080;-62
2021/03/29 23:18:50;;;;;;;3.60;1.42;;;8.00;99.90;;;;;;10386290;28;20051;-62
2021/03/29 23:23:51;;;;;;;3.58;1.38;;;7.90;99.90;;;;;;10382870;28;20583;-62
2021/03/29 23:28:53;;;;;;;6.80;1.90;;;7.90;99.90;;;;;;10387915;28;20515;-62
2021/03/29 23:33:54;;;;;;;4.95;1.55;;;7.80;99.90;;;;;;10384269;28;20057;-61
2021/03/29 23:38:55;;;;;;;3.95;1.52;;;7.70;99.90;;;;;;10383798;28;20737;-62
2021/03/29 23:43:56;;;;;;;3.60;1.50;;;7.60;99.90;;;;;;10361602;28;20049;-60
2021/03/29 23:48:58;;;;;;;5.88;1.42;;;7.50;99.90;;;;;;10384699;28;20045;-61
2021/03/29 23:53:59;;;;;;;7.18;1.42;;;7.40;99.90;;;;;;10361151;28;20057;-62
2021/03/29 23:59:00;;;;;;;7.95;1.40;;;7.30;99.90;;;;;;10369935;28;20057;-61
